Time;durP1;ratioP1;P1;durP2;ratioP2;P2;SDS_P1;SDS_P2;PMS_P1;PMS_P2;Temp;Humidity;BMP_temperature;BMP_pressure;BME280_temperature;BME280_humidity;BME280_pressure;Samples;Min_cycle;Max_cycle;Signal;HPM_P1;HPM_P2
2023/08/25 00:01:17;;;;;;;1999.90;999.90;;;23.10;99.90;;;;;;5078895;28;20029;-70
2023/08/25 00:03:43;;;;;;;1999.90;999.90;;;23.10;99.90;;;;;;5070946;28;20041;-70
2023/08/25 00:06:09;;;;;;;1999.90;999.90;;;23.10;99.90;;;;;;5072568;28;20122;-70
2023/08/25 00:08:36;;;;;;;1999.90;999.90;;;23.10;99.90;;;;;;5072480;28;20017;-75
2023/08/25 00:11:02;;;;;;;1999.90;999.90;;;23.00;99.90;;;;;;5082790;28;20017;-70
2023/08/25 00:13:27;;;;;;;1999.90;999.90;;;23.10;99.90;;;;;;5084563;28;20418;-75
2023/08/25 00:15:53;;;;;;;1999.90;999.90;;;23.00;99.90;;;;;;5087972;28;20398;-70
2023/08/25 00:18:19;;;;;;;1999.90;999.90;;;23.10;99.90;;;;;;5085531;28;20035;-75
2023/08/25 00:20:44;;;;;;;1999.90;999.90;;;23.10;99.90;;;;;;5084988;28;20116;-70
2023/08/25 00:23:10;;;;;;;1999.90;999.90;;;23.00;99.90;;;;;;5087430;28;20017;-70
2023/08/25 00:25:36;;;;;;;1999.90;999.90;;;23.00;99.90;;;;;;5086918;28;20736;-70
2023/08/25 00:28:01;;;;;;;1999.90;999.90;;;22.90;99.90;;;;;;5086243;28;20036;-75
2023/08/25 00:30:27;;;;;;;1999.90;999.90;;;22.90;99.90;;;;;;5087530;28;20016;-75
2023/08/25 00:32:53;;;;;;;1999.90;999.90;;;22.90;99.90;;;;;;5087536;28;20059;-75
2023/08/25 00:35:18;;;;;;;1999.90;999.90;;;22.90;99.90;;;;;;5083773;28;20039;-69
2023/08/25 00:37:44;;;;;;;1999.90;999.90;;;22.90;99.90;;;;;;5085769;28;20025;-70
2023/08/25 00:40:10;;;;;;;1999.90;999.90;;;22.80;99.90;;;;;;5070959;28;20495;-70
2023/08/25 00:42:36;;;;;;;1999.90;999.90;;;22.80;99.90;;;;;;5072045;28;20036;-75
2023/08/25 00:45:02;;;;;;;1999.90;999.90;;;22.80;99.90;;;;;;5072216;28;20036;-70
2023/08/25 00:47:28;;;;;;;1999.90;999.90;;;22.80;99.90;;;;;;5072586;28;20031;-70
2023/08/25 00:49:55;;;;;;;1999.90;999.90;;;22.80;99.90;;;;;;5072422;28;20017;-70
2023/08/25 00:52:21;;;;;;;1999.90;999.90;;;22.80;99.90;;;;;;5071955;28;20033;-70
2023/08/25 00:54:51;;;;;;;1999.90;999.90;;;22.80;99.90;;;;;;5079026;28;20478;-75
2023/08/25 00:57:17;;;;;;;1999.90;999.90;;;22.80;99.90;;;;;;5090655;28;20124;-75
2023/08/25 00:59:45;;;;;;;1999.90;999.90;;;22.70;99.90;;;;;;5095594;28;20061;-70
2023/08/25 01:02:11;;;;;;;1999.90;999.90;;;22.70;99.90;;;;;;5095720;28;20077;-70
2023/08/25 01:04:37;;;;;;;1999.90;999.90;;;22.70;99.90;;;;;;5096008;28;20028;-70
2023/08/25 01:07:02;;;;;;;1999.90;999.90;;;22.70;99.90;;;;;;5095875;28;20024;-75
2023/08/25 01:09:28;;;;;;;1999.90;999.90;;;22.70;99.90;;;;;;5095796;28;20032;-75
2023/08/25 01:12:01;;;;;;;1999.90;999.90;;;22.70;99.90;;;;;;5078393;28;20048;-70
2023/08/25 01:14:51;;;;;;;1999.90;999.90;;;22.70;99.90;;;;;;5075552;28;20043;-75
2023/08/25 01:17:37;;;;;;;1999.90;999.90;;;22.50;99.90;;;;;;5075446;28;20033;-70
2023/08/25 01:20:07;;;;;;;1999.90;999.90;;;22.50;99.90;;;;;;5093639;28;20390;-71
2023/08/25 01:23:00;;;;;;;1999.90;999.90;;;22.50;99.90;;;;;;5087343;28;20097;-70
2023/08/25 01:25:30;;;;;;;1999.90;999.90;;;22.50;99.90;;;;;;5095697;28;20016;-75
2023/08/25 01:28:00;;;;;;;1999.90;999.90;;;22.60;99.90;;;;;;5084468;28;20471;-71
2023/08/25 01:30:28;;;;;;;1999.90;999.90;;;22.60;99.90;;;;;;5091496;28;20020;-70
2023/08/25 01:32:54;;;;;;;1999.90;999.90;;;22.60;99.90;;;;;;5095813;28;20093;-75
2023/08/25 01:36:01;;;;;;;1999.90;999.90;;;22.50;99.90;;;;;;5095399;28;20046;-75
2023/08/25 01:38:48;;;;;;;1999.90;999.90;;;22.40;99.90;;;;;;5053002;28;20063;-75
2023/08/25 01:41:25;;;;;;;1999.90;999.90;;;22.40;99.90;;;;;;5049605;28;20597;-70
2023/08/25 01:43:53;;;;;;;1999.90;999.90;;;22.40;99.90;;;;;;5046501;28;20126;-75
2023/08/25 01:46:20;;;;;;;1999.90;999.90;;;22.50;99.90;;;;;;5032927;28;20254;-75
2023/08/25 01:48:48;;;;;;;1999.90;999.90;;;22.50;99.90;;;;;;5032729;28;20586;-75
2023/08/25 01:51:15;;;;;;;1999.90;999.90;;;22.40;99.90;;;;;;5032931;28;20029;-75
2023/08/25 01:53:47;;;;;;;1999.90;999.90;;;22.40;99.90;;;;;;5032654;28;20070;-70
2023/08/25 01:56:13;;;;;;;1999.90;999.90;;;22.40;99.90;;;;;;5032720;28;20124;-70
2023/08/25 01:58:39;;;;;;;1999.90;999.90;;;22.40;99.90;;;;;;5033533;28;20061;-75
2023/08/25 02:01:04;;;;;;;1999.90;999.90;;;22.40;99.90;;;;;;5048093;28;20412;-76
2023/08/25 02:03:30;;;;;;;1999.90;999.90;;;22.30;99.90;;;;;;5052187;28;20052;-70
2023/08/25 02:05:56;;;;;;;1999.90;999.90;;;22.30;99.90;;;;;;5052306;28;20515;-70
2023/08/25 02:08:21;;;;;;;1999.90;999.90;;;22.20;99.90;;;;;;5054924;28;20044;-70
2023/08/25 02:10:47;;;;;;;1999.90;999.90;;;22.20;99.90;;;;;;5074516;28;20013;-75
2023/08/25 02:13:13;;;;;;;1999.90;999.90;;;22.20;99.90;;;;;;5074519;28;20032;-75
2023/08/25 02:15:46;;;;;;;1999.90;999.90;;;22.20;99.90;;;;;;5074703;28;20024;-70
2023/08/25 02:18:12;;;;;;;1999.90;999.90;;;22.10;99.90;;;;;;5074252;28;20491;-70
2023/08/25 02:20:40;;;;;;;1999.90;999.90;;;22.10;99.90;;;;;;5084418;28;20057;-71
2023/08/25 02:23:08;;;;;;;1999.90;999.90;;;22.10;99.90;;;;;;5093626;28;20038;-75
2023/08/25 02:25:34;;;;;;;1999.90;999.90;;;22.00;99.90;;;;;;5078953;28;20017;-70
2023/08/25 02:28:00;;;;;;;1999.90;999.90;;;22.00;99.90;;;;;;5081722;28;20028;-75
2023/08/25 02:30:26;;;;;;;1999.90;999.90;;;22.00;99.90;;;;;;5091480;28;20372;-75
2023/08/25 02:32:51;;;;;;;1999.90;999.90;;;21.90;99.90;;;;;;5094337;28;20032;-70
2023/08/25 02:35:17;;;;;;;1999.90;999.90;;;21.90;99.90;;;;;;5094352;28;20024;-71
2023/08/25 02:38:04;;;;;;;1999.90;999.90;;;21.80;99.90;;;;;;5094047;28;20028;-75
2023/08/25 02:40:29;;;;;;;1999.90;999.90;;;21.90;99.90;;;;;;5086545;28;20419;-74
2023/08/25 02:42:56;;;;;;;1999.90;999.90;;;21.80;99.90;;;;;;5084471;28;20028;-73
2023/08/25 02:45:25;;;;;;;1999.90;999.90;;;21.90;99.90;;;;;;5086747;28;20027;-70
2023/08/25 02:47:51;;;;;;;1999.90;999.90;;;21.80;99.90;;;;;;5091711;28;20028;-71
2023/08/25 02:50:17;;;;;;;1999.90;999.90;;;21.80;99.90;;;;;;5089866;28;20024;-74
2023/08/25 02:52:42;;;;;;;1999.90;999.90;;;21.90;99.90;;;;;;5087935;28;20094;-75
2023/08/25 02:55:08;;;;;;;1999.90;999.90;;;21.90;99.90;;;;;;5088005;28;20036;-73
2023/08/25 02:57:34;;;;;;;1999.90;999.90;;;21.90;99.90;;;;;;5087797;28;20070;-70
2023/08/25 02:59:59;;;;;;;1999.90;999.90;;;22.00;99.90;;;;;;5089401;28;20114;-70
2023/08/25 03:02:25;;;;;;;1999.90;999.90;;;22.00;99.90;;;;;;5093349;28;20098;-70
2023/08/25 03:04:51;;;;;;;1999.90;999.90;;;21.90;99.90;;;;;;5093053;28;20499;-75
2023/08/25 03:07:16;;;;;;;1999.90;999.90;;;21.90;99.90;;;;;;5093732;28;20073;-70
2023/08/25 03:09:42;;;;;;;1999.90;999.90;;;21.90;99.90;;;;;;5093421;28;20020;-74
2023/08/25 03:12:08;;;;;;;1999.90;999.90;;;21.90;99.90;;;;;;5074385;28;20107;-70
2023/08/25 03:14:33;;;;;;;1999.90;999.90;;;21.80;99.90;;;;;;5072942;28;20024;-70
2023/08/25 03:16:59;;;;;;;1999.90;999.90;;;21.90;99.90;;;;;;5073471;28;20042;-70
2023/08/25 03:19:24;;;;;;;1999.90;999.90;;;22.00;99.90;;;;;;5073767;28;20055;-70
2023/08/25 03:21:50;;;;;;;1999.90;999.90;;;22.00;99.90;;;;;;5080930;28;20017;-75
2023/08/25 03:24:16;;;;;;;1999.90;999.90;;;22.00;99.90;;;;;;5093176;28;20035;-70
2023/08/25 03:26:41;;;;;;;1999.90;999.90;;;22.00;99.90;;;;;;5089046;28;20095;-70
2023/08/25 03:29:07;;;;;;;1999.90;999.90;;;22.10;99.90;;;;;;5084829;28;20454;-74
2023/08/25 03:31:32;;;;;;;1999.90;999.90;;;22.10;99.90;;;;;;5090753;28;20110;-75
2023/08/25 03:33:58;;;;;;;1999.90;999.90;;;22.10;99.90;;;;;;5093181;28;20099;-75
2023/08/25 03:36:24;;;;;;;1999.90;999.90;;;22.10;99.90;;;;;;5093011;28;20107;-70
2023/08/25 03:38:50;;;;;;;1999.90;999.90;;;22.10;99.90;;;;;;5093056;28;20395;-70
2023/08/25 03:41:15;;;;;;;1999.90;999.90;;;22.20;99.90;;;;;;5093137;28;20371;-75
2023/08/25 03:43:41;;;;;;;1999.90;999.90;;;22.20;99.90;;;;;;5088367;28;20029;-70
2023/08/25 03:46:07;;;;;;;1999.90;999.90;;;22.20;99.90;;;;;;5072849;28;20433;-75
2023/08/25 03:48:32;;;;;;;1999.90;999.90;;;22.30;99.90;;;;;;5090621;28;20055;-75
2023/08/25 03:50:58;;;;;;;1999.90;999.90;;;22.30;99.90;;;;;;5091070;28;20505;-71
2023/08/25 03:53:23;;;;;;;1999.90;999.90;;;22.30;99.90;;;;;;5082636;28;20035;-70
2023/08/25 03:55:49;;;;;;;1999.90;999.90;;;22.30;99.90;;;;;;5072608;28;20078;-76
2023/08/25 03:58:15;;;;;;;1999.90;999.90;;;22.20;99.90;;;;;;5087156;28;20070;-70
2023/08/25 04:00:40;;;;;;;1999.90;999.90;;;22.20;99.90;;;;;;5092693;28;20433;-75
2023/08/25 04:03:06;;;;;;;1999.90;999.90;;;22.20;99.90;;;;;;5092804;28;20048;-70
2023/08/25 04:05:33;;;;;;;1999.90;999.90;;;22.20;99.90;;;;;;5093002;28;20051;-70
2023/08/25 04:07:58;;;;;;;1999.90;999.90;;;22.20;99.90;;;;;;5092632;28;20024;-71
2023/08/25 04:10:24;;;;;;;1999.90;999.90;;;22.10;99.90;;;;;;5088140;28;20078;-75
2023/08/25 04:12:50;;;;;;;1999.90;999.90;;;22.00;99.90;;;;;;5070986;28;20035;-70
2023/08/25 04:15:15;;;;;;;1999.90;999.90;;;22.00;99.90;;;;;;5072722;28;20021;-75
2023/08/25 04:17:41;;;;;;;1999.90;999.90;;;22.00;99.90;;;;;;5072660;28;20032;-70
2023/08/25 04:20:07;;;;;;;1999.90;999.90;;;22.00;99.90;;;;;;5089314;28;20505;-74
2023/08/25 04:22:32;;;;;;;1999.90;999.90;;;22.00;99.90;;;;;;5084126;28;20035;-70
2023/08/25 04:24:58;;;;;;;1999.90;999.90;;;22.00;99.90;;;;;;5088033;28;20077;-75
2023/08/25 04:27:24;;;;;;;1999.90;999.90;;;21.90;99.90;;;;;;5087580;28;20036;-70
2023/08/25 04:29:51;;;;;;;1999.90;999.90;;;21.90;99.90;;;;;;5083562;28;20058;-70
2023/08/25 04:32:17;;;;;;;1999.90;999.90;;;21.90;99.90;;;;;;5095757;28;20024;-70
2023/08/25 04:34:42;;;;;;;1999.90;999.90;;;21.80;99.90;;;;;;5092441;28;20069;-75
2023/08/25 04:37:08;;;;;;;1999.90;999.90;;;21.80;99.90;;;;;;5094022;28;20039;-69
2023/08/25 04:39:33;;;;;;;1999.90;999.90;;;21.80;99.90;;;;;;5096455;28;20099;-76
2023/08/25 04:42:00;;;;;;;1999.90;999.90;;;21.80;99.90;;;;;;5096333;28;20391;-70
2023/08/25 04:44:25;;;;;;;1999.90;999.90;;;21.80;99.90;;;;;;5087477;28;20061;-70
2023/08/25 04:46:51;;;;;;;1999.90;999.90;;;21.80;99.90;;;;;;5077442;28;20024;-75
2023/08/25 04:49:17;;;;;;;1999.90;999.90;;;21.80;99.90;;;;;;5076429;28;20020;-75
2023/08/25 04:51:42;;;;;;;1999.90;999.90;;;21.80;99.90;;;;;;5087354;28;20087;-70
2023/08/25 04:54:09;;;;;;;1999.90;999.90;;;21.80;99.90;;;;;;5075556;28;20029;-75
2023/08/25 04:56:34;;;;;;;1999.90;999.90;;;21.70;99.90;;;;;;5084970;28;20107;-70
2023/08/25 04:59:00;;;;;;;1999.90;999.90;;;21.70;99.90;;;;;;5088348;28;20115;-75
2023/08/25 05:01:26;;;;;;;1999.90;999.90;;;21.70;99.90;;;;;;5090405;28;20032;-71
2023/08/25 05:03:51;;;;;;;1999.90;999.90;;;21.70;99.90;;;;;;5095461;28;20051;-75
2023/08/25 05:06:17;;;;;;;1999.90;999.90;;;21.70;99.90;;;;;;5082513;28;20037;-75
2023/08/25 05:08:42;;;;;;;1999.90;999.90;;;21.60;99.90;;;;;;5075310;28;20108;-70
2023/08/25 05:11:09;;;;;;;1999.90;999.90;;;21.60;99.90;;;;;;5075440;28;20059;-70
2023/08/25 05:13:34;;;;;;;1999.90;999.90;;;21.50;99.90;;;;;;5075402;28;20082;-69
2023/08/25 05:16:00;;;;;;;1999.90;999.90;;;21.40;99.90;;;;;;5076491;28;20036;-70
2023/08/25 05:18:26;;;;;;;1999.90;999.90;;;21.20;99.90;;;;;;5076274;28;20096;-70
2023/08/25 05:20:58;;;;;;;1999.90;999.90;;;21.20;99.90;;;;;;5077280;28;20060;-70
2023/08/25 05:23:24;;;;;;;1999.90;999.90;;;21.00;99.90;;;;;;5087073;28;20024;-70
2023/08/25 05:25:49;;;;;;;1999.90;999.90;;;21.00;99.90;;;;;;5088310;28;20032;-70
2023/08/25 05:28:15;;;;;;;1999.90;999.90;;;21.10;99.90;;;;;;5087039;28;20016;-70
2023/08/25 05:30:45;;;;;;;1999.90;999.90;;;21.00;99.90;;;;;;5087190;28;20034;-75
2023/08/25 05:33:11;;;;;;;1999.90;999.90;;;21.10;99.90;;;;;;5087845;28;20016;-75
2023/08/25 05:35:37;;;;;;;1999.90;999.90;;;21.10;99.90;;;;;;5086209;28;20490;-70
2023/08/25 05:38:03;;;;;;;1999.90;999.90;;;21.10;99.90;;;;;;5073532;28;20028;-70
2023/08/25 05:40:29;;;;;;;1999.90;999.90;;;21.10;99.90;;;;;;5073763;28;20025;-75
2023/08/25 05:42:54;;;;;;;1999.90;999.90;;;21.10;99.90;;;;;;5067271;28;20029;-70
2023/08/25 05:45:20;;;;;;;1999.90;999.90;;;21.20;99.90;;;;;;5073344;28;20074;-70
2023/08/25 05:47:46;;;;;;;1999.90;999.90;;;21.10;99.90;;;;;;5073014;28;20035;-70
2023/08/25 05:50:11;;;;;;;1999.90;999.90;;;21.10;99.90;;;;;;5077618;28;20115;-70
2023/08/25 05:52:37;;;;;;;1999.90;999.90;;;21.00;99.90;;;;;;5077647;28;20107;-75
2023/08/25 05:55:03;;;;;;;1999.90;999.90;;;20.80;99.90;;;;;;5092375;28;20040;-75
2023/08/25 05:57:28;;;;;;;1999.90;999.90;;;20.60;99.90;;;;;;5074001;28;20384;-74
2023/08/25 05:59:54;;;;;;;1999.90;999.90;;;20.50;99.90;;;;;;5073216;28;20032;-70
2023/08/25 06:02:20;;;;;;;1999.90;999.90;;;20.50;99.90;;;;;;5079078;28;20458;-70
2023/08/25 06:04:45;;;;;;;1999.90;999.90;;;20.40;99.90;;;;;;5068665;28;20040;-71
2023/08/25 06:07:11;;;;;;;1999.90;999.90;;;20.40;99.90;;;;;;5069269;28;20829;-69
2023/08/25 06:09:37;;;;;;;1999.90;999.90;;;20.30;99.90;;;;;;5074980;28;20028;-75
2023/08/25 06:12:02;;;;;;;1999.90;999.90;;;20.30;99.90;;;;;;5078452;28;20103;-74
2023/08/25 06:14:30;;;;;;;1999.90;999.90;;;20.30;99.90;;;;;;5078097;28;20032;-70
2023/08/25 06:17:01;;;;;;;1999.90;999.90;;;20.30;99.90;;;;;;5069240;28;20059;-75
2023/08/25 06:19:28;;;;;;;1999.90;999.90;;;20.30;99.90;;;;;;5084257;28;20458;-75
2023/08/25 06:21:53;;;;;;;1999.90;999.90;;;20.20;99.90;;;;;;5072926;28;20024;-75
2023/08/25 06:24:19;;;;;;;1999.90;999.90;;;20.20;99.90;;;;;;5081006;28;20557;-75
2023/08/25 06:26:45;;;;;;;1999.90;999.90;;;20.10;99.90;;;;;;5078506;28;20020;-70
2023/08/25 06:29:11;;;;;;;1999.90;999.90;;;20.20;99.90;;;;;;5078651;28;20036;-71
2023/08/25 06:31:37;;;;;;;1999.90;999.90;;;20.20;99.90;;;;;;5074916;28;20017;-74
2023/08/25 06:34:02;;;;;;;1999.90;999.90;;;20.20;99.90;;;;;;5071208;28;20530;-74
2023/08/25 06:36:32;;;;;;;1999.90;999.90;;;20.20;99.90;;;;;;5071412;28;20038;-74
2023/08/25 06:38:58;;;;;;;1999.90;999.90;;;20.10;99.90;;;;;;5084387;28;20040;-70
2023/08/25 06:41:24;;;;;;;1999.90;999.90;;;20.10;99.90;;;;;;5070140;28;20029;-70
2023/08/25 06:43:50;;;;;;;1999.90;999.90;;;20.10;99.90;;;;;;5071637;28;20551;-74
2023/08/25 06:46:15;;;;;;;1999.90;999.90;;;20.20;99.90;;;;;;5085099;28;20091;-74
2023/08/25 06:48:41;;;;;;;1999.90;999.90;;;20.20;99.90;;;;;;5070213;28;20120;-75
2023/08/25 06:51:07;;;;;;;1999.90;999.90;;;20.30;99.90;;;;;;5074249;28;20032;-74
2023/08/25 06:53:32;;;;;;;1999.90;999.90;;;20.40;99.90;;;;;;5084662;28;20028;-70
2023/08/25 06:55:58;;;;;;;1999.90;999.90;;;20.40;99.90;;;;;;5081618;28;20105;-74
2023/08/25 06:58:23;;;;;;;1999.90;999.90;;;20.50;99.90;;;;;;5077515;28;20101;-73
2023/08/25 07:00:50;;;;;;;1999.90;999.90;;;20.60;99.90;;;;;;5078909;28;20032;-74
2023/08/25 07:03:16;;;;;;;1999.90;999.90;;;20.60;99.90;;;;;;5074494;28;20503;-74
2023/08/25 07:05:42;;;;;;;1999.90;999.90;;;20.60;99.90;;;;;;5072950;28;20021;-70
2023/08/25 07:08:07;;;;;;;1999.90;999.90;;;20.50;99.90;;;;;;5072079;28;20029;-70
2023/08/25 07:10:34;;;;;;;1999.90;999.90;;;20.50;99.90;;;;;;5070374;28;20028;-73
2023/08/25 07:13:00;;;;;;;1999.90;999.90;;;20.60;99.90;;;;;;5071185;28;20688;-69
2023/08/25 07:15:26;;;;;;;1999.90;999.90;;;20.70;99.90;;;;;;5068358;28;20028;-73
2023/08/25 07:17:51;;;;;;;1999.90;999.90;;;20.80;99.90;;;;;;5069455;28;20029;-70
2023/08/25 07:20:17;;;;;;;1999.90;999.90;;;20.90;99.90;;;;;;5069569;28;20115;-70
2023/08/25 07:22:43;;;;;;;1999.90;999.90;;;20.80;99.90;;;;;;5077310;28;20024;-74
2023/08/25 07:25:09;;;;;;;1999.90;999.90;;;20.90;99.90;;;;;;5076944;28;20063;-70
2023/08/25 07:27:35;;;;;;;1999.90;999.90;;;20.90;99.90;;;;;;5069852;28;20075;-73
2023/08/25 07:30:01;;;;;;;1999.90;999.90;;;21.10;99.90;;;;;;5080070;28;20531;-74
2023/08/25 07:32:26;;;;;;;1999.90;999.90;;;21.30;99.90;;;;;;5074716;28;20031;-73
2023/08/25 07:34:52;;;;;;;1999.90;999.90;;;21.30;99.90;;;;;;5073844;28;20028;-73
2023/08/25 07:37:18;;;;;;;1999.90;999.90;;;21.40;99.90;;;;;;5079712;28;20560;-69
2023/08/25 07:39:50;;;;;;;1999.90;999.90;;;21.30;99.90;;;;;;5074546;28;20079;-73
2023/08/25 07:42:15;;;;;;;1999.90;999.90;;;21.30;99.90;;;;;;5079259;28;20024;-73
2023/08/25 07:44:41;;;;;;;1999.90;999.90;;;21.30;99.90;;;;;;5080376;28;20475;-71
2023/08/25 07:47:07;;;;;;;1999.90;999.90;;;21.40;99.90;;;;;;5076042;28;20096;-70
2023/08/25 07:49:33;;;;;;;1999.90;999.90;;;21.30;99.90;;;;;;5082942;28;20024;-74
2023/08/25 07:51:59;;;;;;;1999.90;999.90;;;21.40;99.90;;;;;;5080000;28;20032;-70
2023/08/25 07:54:28;;;;;;;1999.90;999.90;;;21.30;99.90;;;;;;5079330;28;20079;-74
2023/08/25 07:56:54;;;;;;;1999.90;999.90;;;21.10;99.90;;;;;;5075005;28;20058;-70
2023/08/25 07:59:20;;;;;;;1999.90;999.90;;;21.00;99.90;;;;;;5075948;28;20028;-73
2023/08/25 08:01:46;;;;;;;1999.90;999.90;;;21.00;99.90;;;;;;5078430;28;20024;-74
2023/08/25 08:04:12;;;;;;;1999.90;999.90;;;21.10;99.90;;;;;;5079595;28;20643;-73
2023/08/25 08:06:38;;;;;;;1999.90;999.90;;;21.20;99.90;;;;;;5078742;28;20044;-74
2023/08/25 08:09:06;;;;;;;1999.90;999.90;;;21.20;99.90;;;;;;5084185;28;20071;-75
2023/08/25 08:11:33;;;;;;;1999.90;999.90;;;21.20;99.90;;;;;;5080986;28;20370;-71
2023/08/25 08:13:59;;;;;;;1999.90;999.90;;;20.90;99.90;;;;;;5078040;28;20499;-74
2023/08/25 08:16:25;;;;;;;1999.90;999.90;;;20.80;99.90;;;;;;5079982;28;20032;-74
2023/08/25 08:18:50;;;;;;;1999.90;999.90;;;20.80;99.90;;;;;;5075528;28;20149;-73
2023/08/25 08:21:17;;;;;;;1999.90;999.90;;;20.60;99.90;;;;;;5075136;28;20096;-74
2023/08/25 08:23:43;;;;;;;1999.90;999.90;;;20.60;99.90;;;;;;5075433;28;20035;-70
2023/08/25 08:26:09;;;;;;;1999.90;999.90;;;20.60;99.90;;;;;;5076450;28;20032;-70
2023/08/25 08:28:34;;;;;;;1999.90;999.90;;;20.50;99.90;;;;;;5076221;28;20028;-74
2023/08/25 08:31:05;;;;;;;1999.90;999.90;;;20.40;99.90;;;;;;5075548;28;20536;-74
2023/08/25 08:33:31;;;;;;;1999.90;999.90;;;20.40;99.90;;;;;;5085053;28;20387;-74
2023/08/25 08:35:57;;;;;;;1999.90;999.90;;;20.50;99.90;;;;;;5073579;28;20069;-69
2023/08/25 08:38:23;;;;;;;1999.90;999.90;;;20.40;99.90;;;;;;5072648;28;20032;-70
2023/08/25 08:40:50;;;;;;;1999.90;999.90;;;20.50;99.90;;;;;;5072849;28;20040;-74
2023/08/25 08:43:17;;;;;;;1999.90;999.90;;;20.40;99.90;;;;;;5079058;28;20025;-73
2023/08/25 08:45:44;;;;;;;1999.90;999.90;;;20.40;99.90;;;;;;5073218;28;20021;-74
2023/08/25 08:48:13;;;;;;;1999.90;999.90;;;20.30;99.90;;;;;;5073039;28;20033;-74
2023/08/25 08:50:39;;;;;;;1999.90;999.90;;;20.30;99.90;;;;;;5074001;28;20455;-69
2023/08/25 08:53:05;;;;;;;1999.90;999.90;;;20.20;99.90;;;;;;5071963;28;20332;-72
2023/08/25 08:55:33;;;;;;;1999.90;999.90;;;20.20;99.90;;;;;;5075151;28;20020;-73
2023/08/25 08:57:58;;;;;;;1999.90;999.90;;;20.30;99.90;;;;;;5072281;28;20500;-72
2023/08/25 09:00:24;;;;;;;1999.90;999.90;;;20.40;99.90;;;;;;5079780;28;20036;-73
2023/08/25 09:02:53;;;;;;;1999.90;999.90;;;20.40;99.90;;;;;;5074885;28;20514;-71
2023/08/25 09:05:30;;;;;;;1999.90;999.90;;;20.40;99.90;;;;;;5072172;28;20029;-71
2023/08/25 09:08:03;;;;;;;1999.90;999.90;;;20.20;99.90;;;;;;5064449;28;20021;-73
2023/08/25 09:10:28;;;;;;;1999.90;999.90;;;20.10;99.90;;;;;;5071900;28;20064;-73
2023/08/25 09:12:54;;;;;;;1999.90;999.90;;;20.10;99.90;;;;;;5073101;28;20071;-73
2023/08/25 09:15:33;;;;;;;1999.90;999.90;;;20.20;99.90;;;;;;5072164;28;20104;-71
2023/08/25 09:18:03;;;;;;;1999.90;999.90;;;20.20;99.90;;;;;;5070299;28;20052;-71
2023/08/25 09:20:32;;;;;;;1999.90;999.90;;;20.20;99.90;;;;;;5070794;28;20040;-73
2023/08/25 09:22:57;;;;;;;1999.90;999.90;;;20.20;99.90;;;;;;5072669;28;20020;-73
2023/08/25 09:25:24;;;;;;;1999.90;999.90;;;20.20;99.90;;;;;;5069579;28;20085;-71
2023/08/25 09:28:00;;;;;;;1999.90;999.90;;;20.10;99.90;;;;;;5071733;28;20075;-71
2023/08/25 09:30:40;;;;;;;1999.90;999.90;;;20.10;99.90;;;;;;5071676;28;20032;-70
2023/08/25 09:33:09;;;;;;;1999.90;999.90;;;20.10;99.90;;;;;;5074077;28;20051;-73
2023/08/25 09:35:36;;;;;;;1999.90;999.90;;;20.00;99.90;;;;;;5071395;28;20376;-73
2023/08/25 09:38:03;;;;;;;1999.90;999.90;;;20.10;99.90;;;;;;5071910;28;20035;-72
2023/08/25 09:40:29;;;;;;;1999.90;999.90;;;20.20;99.90;;;;;;5075347;28;20492;-73
2023/08/25 09:43:02;;;;;;;1999.90;999.90;;;20.20;99.90;;;;;;5073565;28;20513;-71
2023/08/25 09:45:29;;;;;;;1999.90;999.90;;;20.40;99.90;;;;;;5071348;28;20441;-73
2023/08/25 09:48:11;;;;;;;1999.90;999.90;;;20.70;99.90;;;;;;5070134;28;20078;-74
2023/08/25 09:50:41;;;;;;;1999.90;999.90;;;20.80;99.90;;;;;;5070938;28;20054;-73
2023/08/25 09:53:09;;;;;;;1999.90;999.90;;;20.70;99.90;;;;;;5072865;28;20071;-73
2023/08/25 09:55:36;;;;;;;1999.90;999.90;;;20.60;99.90;;;;;;5071488;28;20424;-70
2023/08/25 09:58:09;;;;;;;1999.90;999.90;;;20.80;99.90;;;;;;5072800;28;20503;-70
2023/08/25 10:00:37;;;;;;;1999.90;999.90;;;21.10;99.90;;;;;;5072723;28;20032;-73
2023/08/25 10:03:05;;;;;;;1999.90;999.90;;;21.30;99.90;;;;;;5073713;28;20380;-73
2023/08/25 10:05:32;;;;;;;1999.90;999.90;;;21.30;99.90;;;;;;5071101;28;20028;-73
2023/08/25 10:07:59;;;;;;;1999.90;999.90;;;21.50;99.90;;;;;;5070805;28;20511;-70
2023/08/25 10:10:26;;;;;;;1999.90;999.90;;;21.70;99.90;;;;;;5071682;28;20119;-70
2023/08/25 10:12:55;;;;;;;1999.90;999.90;;;21.80;99.90;;;;;;5072492;28;20522;-73
2023/08/25 10:15:22;;;;;;;1999.90;999.90;;;21.80;99.90;;;;;;5079108;28;20028;-73
2023/08/25 10:17:49;;;;;;;1999.90;999.90;;;21.70;99.90;;;;;;5079184;28;20103;-74
2023/08/25 10:20:15;;;;;;;1999.90;999.90;;;21.70;99.90;;;;;;5074371;28;20035;-70
2023/08/25 10:22:45;;;;;;;1999.90;999.90;;;21.60;99.90;;;;;;5073735;28;20028;-71
2023/08/25 10:25:13;;;;;;;1999.90;999.90;;;21.50;99.90;;;;;;5076371;28;20104;-73
2023/08/25 10:27:40;;;;;;;1999.90;999.90;;;21.40;99.90;;;;;;5076926;28;20569;-71
2023/08/25 10:30:06;;;;;;;1999.90;999.90;;;21.40;99.90;;;;;;5077378;28;20032;-74
2023/08/25 10:32:51;;;;;;;1999.90;999.90;;;21.50;99.90;;;;;;5075863;28;20021;-74
2023/08/25 10:35:43;;;;;;;1999.90;999.90;;;21.70;99.90;;;;;;5073784;28;20483;-71
2023/08/25 10:38:30;;;;;;;1999.90;999.90;;;21.70;99.90;;;;;;5070440;28;20115;-70
2023/08/25 10:40:57;;;;;;;1999.90;999.90;;;21.30;99.90;;;;;;5071258;28;20033;-74
2023/08/25 10:43:32;;;;;;;1999.90;999.90;;;21.10;99.90;;;;;;5072723;28;20024;-70
2023/08/25 10:46:01;;;;;;;1999.90;999.90;;;21.00;99.90;;;;;;5080492;28;20025;-74
2023/08/25 10:48:27;;;;;;;1999.90;999.90;;;20.90;99.90;;;;;;5070870;28;20024;-70
2023/08/25 10:51:04;;;;;;;1999.90;999.90;;;20.80;99.90;;;;;;5074438;28;20472;-73
2023/08/25 10:53:46;;;;;;;1999.90;999.90;;;20.80;99.90;;;;;;5077307;28;20070;-74
2023/08/25 10:56:16;;;;;;;1999.90;999.90;;;20.90;99.90;;;;;;5070250;28;20036;-74
2023/08/25 10:58:43;;;;;;;1999.90;999.90;;;20.80;99.90;;;;;;5079883;28;20031;-74
2023/08/25 11:01:09;;;;;;;1999.90;999.90;;;20.70;99.90;;;;;;5076419;28;20032;-74
2023/08/25 11:04:07;;;;;;;1999.90;999.90;;;20.70;99.90;;;;;;5068384;28;20784;-70
2023/08/25 11:06:45;;;;;;;1999.90;999.90;;;20.60;99.90;;;;;;5067513;28;20049;-73
2023/08/25 11:09:26;;;;;;;1999.90;999.90;;;20.50;99.90;;;;;;5072951;28;20082;-74
2023/08/25 11:12:08;;;;;;;1999.90;999.90;;;20.30;99.90;;;;;;5069920;28;20032;-70
2023/08/25 11:14:35;;;;;;;1999.90;999.90;;;20.20;99.90;;;;;;5069708;28;20391;-70
2023/08/25 11:17:03;;;;;;;1999.90;999.90;;;20.10;99.90;;;;;;5069925;28;20119;-74
2023/08/25 11:19:32;;;;;;;1999.90;999.90;;;20.10;99.90;;;;;;5068885;28;20316;-74
2023/08/25 11:22:03;;;;;;;1999.90;999.90;;;20.20;99.90;;;;;;5071660;28;20498;-74
2023/08/25 11:24:29;;;;;;;1999.90;999.90;;;20.30;99.90;;;;;;5073642;28;20028;-73
2023/08/25 11:27:03;;;;;;;1999.90;999.90;;;20.30;99.90;;;;;;5077652;28;20071;-70
2023/08/25 11:29:29;;;;;;;1999.90;999.90;;;20.20;99.90;;;;;;5070786;28;20031;-70
2023/08/25 11:31:54;;;;;;;1999.90;999.90;;;20.10;99.90;;;;;;5078199;28;20032;-74
2023/08/25 11:34:21;;;;;;;1999.90;999.90;;;20.10;99.90;;;;;;5075499;28;20032;-73
2023/08/25 11:36:47;;;;;;;1999.90;999.90;;;20.20;99.90;;;;;;5081674;28;20047;-73
2023/08/25 11:39:18;;;;;;;1999.90;999.90;;;20.30;99.90;;;;;;5073309;28;20036;-70
2023/08/25 11:41:43;;;;;;;1999.90;999.90;;;20.50;99.90;;;;;;5070865;28;20036;-71
2023/08/25 11:44:11;;;;;;;1999.90;999.90;;;20.70;99.90;;;;;;5078944;28;20032;-73
2023/08/25 11:46:37;;;;;;;1999.90;999.90;;;20.80;99.90;;;;;;5074381;28;20455;-74
2023/08/25 11:49:04;;;;;;;1999.90;999.90;;;21.30;99.90;;;;;;5076894;28;20024;-74
2023/08/25 11:51:30;;;;;;;1999.90;999.90;;;21.60;99.90;;;;;;5071294;28;20036;-70
2023/08/25 11:53:56;;;;;;;1999.90;999.90;;;21.80;99.90;;;;;;5070120;28;20082;-70
2023/08/25 11:56:22;;;;;;;1999.90;999.90;;;21.90;99.90;;;;;;5075141;28;20033;-74
2023/08/25 11:58:49;;;;;;;1999.90;999.90;;;21.70;99.90;;;;;;5078091;28;20032;-72
2023/08/25 12:01:15;;;;;;;1999.90;999.90;;;21.60;99.90;;;;;;5081446;28;20551;-74